Time;durP1;ratioP1;P1;durP2;ratioP2;P2;SDS_P1;SDS_P2;PMS_P1;PMS_P2;Temp;Humidity;BMP_temperature;BMP_pressure;BME280_temperature;BME280_humidity;BME280_pressure;Samples;Min_cycle;Max_cycle;Signal;HPM_P1;HPM_P2
2023/04/30 00:01:43;;;;;;;7.03;2.90;;;6.40;99.90;;;;;;4964072;28;21164;-59
2023/04/30 00:04:09;;;;;;;7.32;2.72;;;6.40;99.90;;;;;;4964941;28;20062;-56
2023/04/30 00:06:35;;;;;;;4.40;2.40;;;6.30;99.90;;;;;;4967559;28;20548;-58
2023/04/30 00:09:01;;;;;;;6.18;2.55;;;6.30;99.90;;;;;;4948241;28;20043;-58
2023/04/30 00:11:26;;;;;;;6.22;2.78;;;6.30;99.90;;;;;;4958702;28;20085;-58
2023/04/30 00:13:52;;;;;;;7.32;2.65;;;6.30;99.90;;;;;;4966643;28;20042;-57
2023/04/30 00:16:18;;;;;;;7.65;2.90;;;6.30;99.90;;;;;;4955271;28;20047;-58
2023/04/30 00:18:44;;;;;;;7.30;3.17;;;6.30;99.90;;;;;;4932237;28;20046;-58
2023/04/30 00:21:10;;;;;;;5.05;2.58;;;6.30;99.90;;;;;;4961660;28;20066;-57
2023/04/30 00:23:36;;;;;;;7.50;2.92;;;6.30;99.90;;;;;;4954003;28;20085;-57
2023/04/30 00:26:01;;;;;;;5.07;2.80;;;6.20;99.90;;;;;;4963133;28;21064;-57
2023/04/30 00:28:27;;;;;;;6.95;3.47;;;6.20;99.90;;;;;;4964064;28;20126;-58
2023/04/30 00:30:53;;;;;;;8.60;3.15;;;6.20;99.90;;;;;;4964249;28;20508;-58
2023/04/30 00:33:19;;;;;;;4.85;2.58;;;6.20;99.90;;;;;;4948594;28;20055;-57
2023/04/30 00:35:45;;;;;;;5.88;2.65;;;6.20;99.90;;;;;;4966945;28;20039;-58
2023/04/30 00:38:11;;;;;;;3.63;2.75;;;6.20;99.90;;;;;;4965922;28;20042;-58
2023/04/30 00:40:38;;;;;;;6.30;3.78;;;6.10;99.90;;;;;;4965561;28;20054;-58
2023/04/30 00:43:04;;;;;;;8.55;3.42;;;6.10;99.90;;;;;;4965712;28;20046;-56
2023/04/30 00:45:30;;;;;;;6.47;2.38;;;6.00;99.90;;;;;;4966200;28;20054;-58
2023/04/30 00:47:56;;;;;;;6.35;2.60;;;6.00;99.90;;;;;;4947089;28;20129;-57
2023/04/30 00:50:22;;;;;;;11.60;3.60;;;5.90;99.90;;;;;;4938446;28;20124;-57
2023/04/30 00:52:48;;;;;;;12.10;3.70;;;5.90;99.90;;;;;;4965799;28;20130;-57
2023/04/30 00:55:14;;;;;;;7.75;3.08;;;5.80;99.90;;;;;;4965491;28;20964;-59
2023/04/30 00:57:40;;;;;;;4.88;2.45;;;5.80;99.90;;;;;;4964917;28;20046;-58
2023/04/30 01:00:09;;;;;;;5.03;2.22;;;5.70;99.90;;;;;;4948756;28;20502;-59
2023/04/30 01:02:36;;;;;;;5.20;2.10;;;5.70;99.90;;;;;;4949372;28;20042;-57
2023/04/30 01:05:03;;;;;;;10.88;2.30;;;5.70;99.90;;;;;;4956334;28;20038;-58
2023/04/30 01:07:30;;;;;;;6.10;2.10;;;5.70;99.90;;;;;;4944743;28;20047;-58
2023/04/30 01:09:56;;;;;;;3.95;2.10;;;5.70;99.90;;;;;;4961958;28;20046;-57
2023/04/30 01:13:00;;;;;;;5.97;2.90;;;5.60;99.90;;;;;;4964030;28;20065;-57
2023/04/30 01:15:46;;;;;;;6.63;2.78;;;5.60;99.90;;;;;;4961999;28;21619;-57
2023/04/30 01:18:22;;;;;;;6.35;2.90;;;5.60;99.90;;;;;;4963185;28;20038;-57
2023/04/30 01:20:53;;;;;;;4.47;3.00;;;5.60;99.90;;;;;;4946236;28;20090;-58
2023/04/30 01:23:31;;;;;;;6.65;3.53;;;5.60;99.90;;;;;;4949259;28;20053;-58
2023/04/30 01:26:20;;;;;;;5.75;2.97;;;5.50;99.90;;;;;;4951883;28;20051;-57
2023/04/30 01:28:49;;;;;;;9.40;3.03;;;5.60;99.90;;;;;;4964438;28;20120;-57
2023/04/30 01:31:17;;;;;;;6.68;3.42;;;5.50;99.90;;;;;;4946213;28;20572;-57
2023/04/30 01:33:43;;;;;;;6.40;3.17;;;5.50;99.90;;;;;;4954883;28;20042;-58
2023/04/30 01:36:39;;;;;;;6.68;3.30;;;5.50;99.90;;;;;;4947106;28;20046;-58
2023/04/30 01:39:44;;;;;;;4.47;2.67;;;5.50;99.90;;;;;;4963283;28;20046;-58
2023/04/30 01:42:12;;;;;;;8.05;3.50;;;5.50;99.90;;;;;;4893658;29;20040;-57
2023/04/30 01:44:46;;;;;;;6.43;3.28;;;5.50;99.90;;;;;;4893062;29;20821;-57
2023/04/30 01:47:40;;;;;;;6.45;3.10;;;5.50;99.90;;;;;;4929955;28;23260;-57
2023/04/30 01:50:18;;;;;;;;;;;5.50;99.90;;;;;;4962962;28;21067;-58
2023/04/30 01:52:51;;;;;;;7.53;3.20;;;5.50;99.90;;;;;;4945632;28;19926;-58
2023/04/30 01:55:21;;;;;;;5.07;3.88;;;5.50;99.90;;;;;;4965938;28;20046;-57
2023/04/30 01:57:59;;;;;;;7.30;3.90;;;5.60;99.90;;;;;;4962433;28;20050;-57
2023/04/30 02:00:26;;;;;;;10.77;3.83;;;5.60;99.90;;;;;;4963604;28;20046;-58
2023/04/30 02:02:52;;;;;;;7.57;3.70;;;5.60;99.90;;;;;;4961618;28;20514;-56
2023/04/30 02:05:18;;;;;;;10.40;3.83;;;5.60;99.90;;;;;;4948546;28;20145;-58
2023/04/30 02:07:46;;;;;;;7.20;3.72;;;5.60;99.90;;;;;;4933557;28;20065;-57
2023/04/30 02:10:12;;;;;;;8.63;3.65;;;5.60;99.90;;;;;;4929787;28;20049;-57
2023/04/30 02:12:39;;;;;;;10.98;4.30;;;5.70;99.90;;;;;;4962297;28;20393;-57
2023/04/30 02:15:06;;;;;;;6.28;3.55;;;5.60;99.90;;;;;;4945748;28;25590;-57
2023/04/30 02:17:32;;;;;;;6.68;3.13;;;5.70;99.90;;;;;;4945370;28;20050;-58
2023/04/30 02:19:58;;;;;;;7.68;3.42;;;5.70;99.90;;;;;;4963164;28;20050;-58
2023/04/30 02:22:24;;;;;;;8.82;3.30;;;5.70;99.90;;;;;;4964513;28;20066;-58
2023/04/30 02:24:50;;;;;;;5.88;3.33;;;5.80;99.90;;;;;;4963671;28;20069;-57
2023/04/30 02:27:17;;;;;;;4.65;3.33;;;5.70;99.90;;;;;;4963837;28;20046;-57
2023/04/30 02:29:42;;;;;;;8.40;3.60;;;5.90;99.90;;;;;;4952474;28;21776;-57
2023/04/30 02:32:08;;;;;;;8.98;3.40;;;5.80;99.90;;;;;;4962308;28;20053;-57
2023/04/30 02:34:34;;;;;;;5.88;3.13;;;5.80;99.90;;;;;;4955460;28;20077;-58
2023/04/30 02:36:59;;;;;;;8.13;3.03;;;5.80;99.90;;;;;;4961753;28;20061;-58
2023/04/30 02:39:25;;;;;;;3.67;2.53;;;5.80;99.90;;;;;;4960603;28;20082;-57
2023/04/30 02:41:51;;;;;;;5.20;2.40;;;5.80;99.90;;;;;;4962717;28;20058;-57
2023/04/30 02:44:17;;;;;;;5.50;2.60;;;5.80;99.90;;;;;;4953236;28;20046;-56
2023/04/30 02:46:43;;;;;;;3.60;2.47;;;5.70;99.90;;;;;;4963050;28;20081;-57
2023/04/30 02:49:08;;;;;;;4.63;2.90;;;5.80;99.90;;;;;;4964627;28;20046;-56
2023/04/30 02:51:34;;;;;;;5.97;3.00;;;5.80;99.90;;;;;;4967869;28;20116;-57
2023/04/30 02:54:00;;;;;;;3.70;2.70;;;5.80;99.90;;;;;;4965396;28;21883;-57
2023/04/30 02:56:26;;;;;;;7.53;3.08;;;5.80;99.90;;;;;;4967233;28;20770;-57
2023/04/30 02:58:51;;;;;;;3.53;2.90;;;5.80;99.90;;;;;;4964521;28;20050;-56
2023/04/30 03:01:17;;;;;;;5.78;3.03;;;5.80;99.90;;;;;;4966722;28;20045;-57
2023/04/30 03:03:43;;;;;;;8.18;3.67;;;5.80;99.90;;;;;;4963508;28;20141;-58
2023/04/30 03:06:08;;;;;;;4.97;2.72;;;5.80;99.90;;;;;;4965085;28;20058;-57
2023/04/30 03:08:34;;;;;;;5.25;3.38;;;5.90;99.90;;;;;;4967276;28;20252;-57
2023/04/30 03:11:00;;;;;;;7.15;3.10;;;5.80;99.90;;;;;;4949486;28;20057;-56
2023/04/30 03:13:26;;;;;;;3.50;3.08;;;5.90;99.90;;;;;;4941391;28;20042;-56
2023/04/30 03:15:59;;;;;;;8.32;3.17;;;5.80;99.90;;;;;;4964720;28;20821;-58
2023/04/30 03:18:24;;;;;;;;;;;5.80;99.90;;;;;;4946097;28;20129;-58
2023/04/30 03:20:50;;;;;;;6.80;3.28;;;5.80;99.90;;;;;;4963353;28;19922;-58
2023/04/30 03:23:16;;;;;;;8.43;3.28;;;5.80;99.90;;;;;;4947745;28;21036;-58
2023/04/30 03:25:41;;;;;;;8.88;3.30;;;5.90;99.90;;;;;;4965563;28;20493;-58
2023/04/30 03:28:07;;;;;;;7.70;3.13;;;5.90;99.90;;;;;;4951477;28;20089;-57
2023/04/30 03:30:33;;;;;;;6.68;3.47;;;5.90;99.90;;;;;;4949670;28;20047;-57
2023/04/30 03:32:58;;;;;;;4.53;3.10;;;5.90;99.90;;;;;;4939958;28;20038;-58
2023/04/30 03:35:24;;;;;;;9.50;3.00;;;5.90;99.90;;;;;;4966303;28;20398;-59
2023/04/30 03:37:50;;;;;;;8.90;3.55;;;5.90;99.90;;;;;;4963847;28;20050;-58
2023/04/30 03:40:16;;;;;;;9.88;3.75;;;5.90;99.90;;;;;;4967533;28;20062;-58
2023/04/30 03:42:42;;;;;;;6.25;3.65;;;5.90;99.90;;;;;;4965974;28;20046;-58
2023/04/30 03:45:08;;;;;;;10.05;3.50;;;5.90;99.90;;;;;;4965561;28;20101;-58
2023/04/30 03:47:34;;;;;;;8.38;3.70;;;5.90;99.90;;;;;;4953896;28;20082;-58
2023/04/30 03:50:01;;;;;;;12.05;3.85;;;5.90;99.90;;;;;;4948188;28;20046;-57
2023/04/30 03:52:26;;;;;;;6.65;3.33;;;5.80;99.90;;;;;;4967145;28;20059;-58
2023/04/30 03:54:52;;;;;;;8.10;3.20;;;5.90;99.90;;;;;;4956219;28;20540;-57
2023/04/30 03:57:18;;;;;;;8.25;3.15;;;5.80;99.90;;;;;;4966600;28;20490;-57
2023/04/30 03:59:43;;;;;;;8.68;3.05;;;5.80;99.90;;;;;;4963748;28;20043;-58
2023/04/30 04:02:09;;;;;;;10.43;3.95;;;5.80;99.90;;;;;;4952336;28;20046;-57
2023/04/30 04:04:35;;;;;;;10.25;3.63;;;5.80;99.90;;;;;;4963696;28;20062;-58
2023/04/30 04:07:02;;;;;;;9.90;3.00;;;5.80;99.90;;;;;;4952916;28;20046;-57
2023/04/30 04:09:28;;;;;;;10.90;3.45;;;5.70;99.90;;;;;;4962853;28;20038;-58
2023/04/30 04:11:54;;;;;;;11.65;3.45;;;5.70;99.90;;;;;;4962452;28;20492;-57
2023/04/30 04:14:20;;;;;;;9.48;3.80;;;5.70;99.90;;;;;;4932974;28;20147;-58
2023/04/30 04:16:46;;;;;;;8.30;3.40;;;5.70;99.90;;;;;;4948744;28;20046;-56
2023/04/30 04:19:12;;;;;;;11.15;3.78;;;5.70;99.90;;;;;;4962198;28;20070;-57
2023/04/30 04:21:38;;;;;;;11.82;3.58;;;5.70;99.90;;;;;;4922270;28;20809;-57
2023/04/30 04:24:07;;;;;;;12.82;3.88;;;5.70;99.90;;;;;;4964339;28;20126;-58
2023/04/30 04:26:36;;;;;;;14.38;3.83;;;5.70;99.90;;;;;;4964403;28;21061;-58
2023/04/30 04:29:07;;;;;;;15.23;4.18;;;5.60;99.90;;;;;;4965296;28;20046;-58
2023/04/30 04:31:33;;;;;;;11.85;3.88;;;5.60;99.90;;;;;;4963837;28;20117;-58
2023/04/30 04:34:03;;;;;;;10.95;3.90;;;5.60;99.90;;;;;;4962611;28;20197;-58
2023/04/30 04:36:29;;;;;;;9.88;3.42;;;5.60;99.90;;;;;;4965599;28;20051;-58
2023/04/30 04:38:56;;;;;;;7.03;3.40;;;5.60;99.90;;;;;;4964121;28;20046;-57
2023/04/30 04:41:23;;;;;;;10.18;3.33;;;5.60;99.90;;;;;;4962257;28;20057;-57
2023/04/30 04:43:49;;;;;;;8.65;3.30;;;5.60;99.90;;;;;;4962924;28;20059;-57
2023/04/30 04:46:15;;;;;;;9.90;3.30;;;5.60;99.90;;;;;;4964005;28;20046;-57
2023/04/30 04:48:41;;;;;;;10.38;3.55;;;5.60;99.90;;;;;;4963187;28;20058;-58
2023/04/30 04:51:08;;;;;;;11.35;3.75;;;5.60;99.90;;;;;;4964864;28;21054;-58
2023/04/30 04:53:35;;;;;;;14.55;3.95;;;5.70;99.90;;;;;;4952928;28;20042;-58
2023/04/30 04:56:01;;;;;;;12.90;4.20;;;5.80;99.90;;;;;;4935423;28;20051;-59
2023/04/30 04:58:27;;;;;;;11.77;4.43;;;5.70;99.90;;;;;;4943544;28;20726;-58
2023/04/30 05:00:53;;;;;;;22.35;4.60;;;5.80;99.90;;;;;;4965065;28;20069;-57
2023/04/30 05:03:19;;;;;;;8.38;4.13;;;5.90;99.90;;;;;;4961386;28;20046;-58
2023/04/30 05:05:45;;;;;;;14.23;4.63;;;6.00;99.90;;;;;;4949045;28;20109;-58
2023/04/30 05:08:12;;;;;;;10.25;4.45;;;6.00;99.90;;;;;;4964996;28;20084;-57
2023/04/30 05:10:37;;;;;;;16.70;4.80;;;6.20;99.90;;;;;;4947872;28;20138;-57
2023/04/30 05:13:03;;;;;;;10.55;4.65;;;6.20;99.90;;;;;;4947877;28;20046;-58
2023/04/30 05:15:29;;;;;;;11.32;4.72;;;6.20;99.90;;;;;;4962969;28;20046;-57
2023/04/30 05:17:55;;;;;;;13.20;4.35;;;6.30;99.90;;;;;;4944466;28;20073;-58
2023/04/30 05:20:21;;;;;;;18.83;4.70;;;6.40;99.90;;;;;;4947291;28;20046;-58
2023/04/30 05:22:47;;;;;;;12.43;4.40;;;6.40;99.90;;;;;;4963646;28;20153;-57
2023/04/30 05:25:12;;;;;;;14.43;4.38;;;6.50;99.90;;;;;;4931473;28;20065;-58
2023/04/30 05:27:38;;;;;;;11.93;3.97;;;6.60;99.90;;;;;;4964539;28;20158;-57
2023/04/30 05:30:05;;;;;;;13.88;4.80;;;6.70;99.90;;;;;;4945262;28;20138;-58
2023/04/30 05:32:31;;;;;;;15.15;4.78;;;6.80;99.90;;;;;;4931867;28;20130;-56
2023/04/30 05:34:56;;;;;;;14.05;4.57;;;6.90;99.90;;;;;;4947588;28;20046;-58
2023/04/30 05:37:22;;;;;;;12.07;4.05;;;6.90;99.90;;;;;;4920990;28;20485;-58
2023/04/30 05:39:48;;;;;;;17.63;3.70;;;7.00;99.90;;;;;;4961910;28;20043;-57
2023/04/30 05:42:14;;;;;;;17.52;4.32;;;7.00;99.90;;;;;;4965171;28;20303;-56
2023/04/30 05:44:40;;;;;;;8.95;3.80;;;7.10;99.90;;;;;;4961720;28;20038;-58
2023/04/30 05:47:06;;;;;;;17.17;4.20;;;7.10;99.90;;;;;;4944335;28;20049;-57
2023/04/30 05:49:32;;;;;;;11.27;3.85;;;7.10;99.90;;;;;;4963305;28;20423;-58
2023/04/30 05:51:57;;;;;;;9.13;3.50;;;7.20;99.90;;;;;;4950021;28;20120;-59
2023/04/30 05:54:23;;;;;;;12.60;3.72;;;7.30;99.90;;;;;;4959468;28;20038;-58
2023/04/30 05:56:49;;;;;;;11.10;3.28;;;7.30;99.90;;;;;;4949114;28;20073;-57
2023/04/30 05:59:14;;;;;;;11.07;3.80;;;7.40;99.90;;;;;;4935439;28;20043;-58
2023/04/30 06:01:40;;;;;;;12.65;4.00;;;7.40;99.90;;;;;;4964179;28;20113;-57
2023/04/30 06:04:08;;;;;;;12.57;4.13;;;7.50;99.90;;;;;;4950097;28;20394;-58
2023/04/30 06:06:33;;;;;;;16.80;4.57;;;7.50;99.90;;;;;;4933178;28;20050;-57
2023/04/30 06:08:59;;;;;;;13.65;4.68;;;7.50;99.90;;;;;;4964143;28;20053;-57
2023/04/30 06:11:26;;;;;;;13.88;4.45;;;7.60;99.90;;;;;;4964563;28;20493;-58
2023/04/30 06:13:51;;;;;;;13.98;5.10;;;7.70;99.90;;;;;;4944276;28;20681;-57
2023/04/30 06:16:17;;;;;;;14.13;4.95;;;7.70;99.90;;;;;;4944894;28;20049;-56
2023/04/30 06:18:44;;;;;;;12.48;4.78;;;7.80;99.90;;;;;;4944214;28;20070;-57
2023/04/30 06:21:10;;;;;;;16.13;4.95;;;7.90;99.90;;;;;;4964165;28;20046;-58
2023/04/30 06:23:36;;;;;;;16.63;5.57;;;7.90;99.90;;;;;;4963588;28;20133;-58
2023/04/30 06:26:02;;;;;;;12.05;4.50;;;7.90;99.90;;;;;;4938074;28;20148;-58
2023/04/30 06:28:28;;;;;;;10.82;4.50;;;8.00;99.90;;;;;;4967767;28;20516;-58
2023/04/30 06:30:54;;;;;;;17.08;5.75;;;7.90;99.90;;;;;;4954774;28;20047;-58
2023/04/30 06:33:20;;;;;;;9.32;3.70;;;8.00;99.90;;;;;;4967709;28;20121;-57
2023/04/30 06:35:46;;;;;;;14.88;3.47;;;8.00;99.90;;;;;;4967807;28;20409;-57
2023/04/30 06:38:12;;;;;;;15.60;3.85;;;8.10;99.90;;;;;;4964314;28;20047;-58
2023/04/30 06:40:38;;;;;;;14.63;3.95;;;8.10;99.90;;;;;;4967530;28;20050;-58
2023/04/30 06:43:04;;;;;;;14.32;3.58;;;8.20;99.90;;;;;;4965416;28;20054;-58
2023/04/30 06:45:30;;;;;;;16.35;4.18;;;8.30;99.90;;;;;;4949346;28;20449;-57
2023/04/30 06:47:58;;;;;;;12.77;3.95;;;8.30;99.90;;;;;;4965137;28;20043;-57
2023/04/30 06:50:23;;;;;;;12.02;3.80;;;8.30;99.90;;;;;;4967319;28;20057;-57
2023/04/30 06:52:49;;;;;;;10.63;3.90;;;8.40;99.90;;;;;;4967560;28;20038;-57
2023/04/30 06:55:15;;;;;;;14.73;3.35;;;8.50;99.90;;;;;;4951175;28;20042;-57
2023/04/30 06:57:41;;;;;;;13.40;3.38;;;8.60;99.90;;;;;;4965817;28;20046;-57
2023/04/30 07:00:07;;;;;;;12.30;3.38;;;8.60;99.90;;;;;;4968230;28;20049;-56
2023/04/30 07:02:33;;;;;;;11.93;3.60;;;8.70;99.90;;;;;;4966224;28;20108;-58
2023/04/30 07:04:59;;;;;;;11.48;3.55;;;8.80;99.90;;;;;;4965729;28;21353;-57
2023/04/30 07:07:25;;;;;;;20.27;4.25;;;8.90;99.90;;;;;;4958688;28;20042;-58
2023/04/30 07:09:52;;;;;;;12.25;3.58;;;8.90;99.90;;;;;;4967457;28;20667;-58
2023/04/30 07:12:18;;;;;;;9.32;3.33;;;9.00;99.90;;;;;;4968307;28;20047;-57
2023/04/30 07:14:43;;;;;;;13.52;3.22;;;9.00;99.90;;;;;;4959721;28;20093;-59
2023/04/30 07:17:10;;;;;;;15.10;3.08;;;9.10;99.90;;;;;;4958210;28;20058;-57
2023/04/30 07:19:36;;;;;;;10.68;3.05;;;9.10;99.90;;;;;;4968088;28;20058;-57
2023/04/30 07:22:01;;;;;;;18.60;3.63;;;9.10;99.90;;;;;;4968933;28;20046;-58
2023/04/30 07:24:27;;;;;;;9.18;3.58;;;9.20;99.90;;;;;;4970982;28;20500;-57
2023/04/30 07:26:53;;;;;;;13.32;3.78;;;9.20;99.90;;;;;;4969997;28;20169;-58
2023/04/30 07:29:19;;;;;;;14.15;3.45;;;9.30;99.90;;;;;;4957622;28;20504;-57
2023/04/30 07:31:44;;;;;;;15.60;4.07;;;9.40;99.90;;;;;;4967183;28;20101;-57
2023/04/30 07:34:12;;;;;;;12.07;3.63;;;9.40;99.90;;;;;;4950351;28;20046;-58
2023/04/30 07:36:38;;;;;;;10.98;3.50;;;9.50;99.90;;;;;;4969335;28;20047;-58
2023/04/30 07:39:04;;;;;;;14.23;3.65;;;9.50;99.90;;;;;;4968311;28;20508;-58
2023/04/30 07:41:31;;;;;;;10.98;3.38;;;9.50;99.90;;;;;;4967968;28;20074;-58
2023/04/30 07:43:56;;;;;;;13.15;2.97;;;9.60;99.90;;;;;;4946123;28;20165;-58
2023/04/30 07:46:24;;;;;;;12.70;3.28;;;9.70;99.90;;;;;;4965167;28;20050;-57
2023/04/30 07:48:49;;;;;;;15.35;3.53;;;9.80;99.90;;;;;;4948834;28;20053;-56
2023/04/30 07:51:15;;;;;;;8.73;3.90;;;9.80;99.90;;;;;;4965425;28;20066;-57
2023/04/30 07:53:41;;;;;;;14.25;3.90;;;9.90;99.90;;;;;;4964204;28;20523;-56
2023/04/30 07:56:07;;;;;;;16.08;3.60;;;10.00;99.90;;;;;;4966444;28;20045;-57
2023/04/30 07:58:33;;;;;;;9.13;3.47;;;10.00;99.90;;;;;;4935771;28;20046;-58
2023/04/30 08:00:59;;;;;;;14.00;3.58;;;10.10;99.90;;;;;;4963870;28;20157;-58
2023/04/30 08:03:24;;;;;;;10.77;3.58;;;10.20;99.90;;;;;;4965861;28;20235;-58
2023/04/30 08:05:51;;;;;;;8.45;2.47;;;10.30;99.90;;;;;;4957237;28;20120;-57
2023/04/30 08:08:17;;;;;;;11.80;3.15;;;10.40;99.90;;;;;;4964628;28;20550;-57
2023/04/30 08:10:42;;;;;;;13.15;2.60;;;10.50;99.90;;;;;;4968998;28;20046;-58
2023/04/30 08:13:08;;;;;;;14.05;3.33;;;10.60;99.90;;;;;;4969415;28;20102;-58
2023/04/30 08:15:34;;;;;;;12.52;3.40;;;10.70;99.90;;;;;;4970389;28;20047;-58
2023/04/30 08:18:01;;;;;;;12.50;3.10;;;10.80;99.90;;;;;;4971300;28;20082;-58
2023/04/30 08:20:26;;;;;;;9.07;3.53;;;10.80;99.90;;;;;;4951125;28;20394;-57
2023/04/30 08:22:52;;;;;;;11.60;2.72;;;11.00;99.90;;;;;;4949785;28;20061;-56
2023/04/30 08:25:18;;;;;;;11.82;3.28;;;11.00;99.90;;;;;;4962927;28;20054;-58
2023/04/30 08:27:44;;;;;;;8.95;3.20;;;11.10;99.90;;;;;;4977204;28;20785;-58
2023/04/30 08:30:10;;;;;;;11.27;2.75;;;11.30;99.90;;;;;;4974037;28;20517;-58
2023/04/30 08:32:36;;;;;;;11.07;2.53;;;11.40;99.90;;;;;;4961286;28;20076;-58
2023/04/30 08:35:03;;;;;;;11.70;3.03;;;11.50;99.90;;;;;;4910325;28;20100;-59
2023/04/30 08:37:29;;;;;;;13.65;3.42;;;11.60;99.90;;;;;;4942921;28;20493;-57
2023/04/30 08:39:55;;;;;;;10.13;2.58;;;11.70;99.90;;;;;;4963765;28;20039;-58
2023/04/30 08:42:26;;;;;;;7.45;2.78;;;11.80;99.90;;;;;;4947878;28;20053;-58
2023/04/30 08:44:52;;;;;;;12.20;2.72;;;11.70;99.90;;;;;;4967053;28;20062;-58
2023/04/30 08:47:19;;;;;;;8.40;2.58;;;11.80;99.90;;;;;;4947414;28;20481;-57
2023/04/30 08:49:46;;;;;;;11.23;2.60;;;11.80;99.90;;;;;;4961439;28;21831;-57
2023/04/30 08:52:11;;;;;;;11.13;2.80;;;11.90;99.90;;;;;;4936869;28;20042;-58
2023/04/30 08:54:37;;;;;;;7.40;2.65;;;12.00;99.90;;;;;;4958663;28;20050;-58
2023/04/30 08:57:04;;;;;;;12.30;3.42;;;12.00;99.90;;;;;;4928199;28;20054;-58
2023/04/30 08:59:30;;;;;;;8.32;2.78;;;12.10;99.90;;;;;;4953672;28;20142;-58
2023/04/30 09:01:55;;;;;;;10.98;2.78;;;12.20;99.90;;;;;;4952875;28;20049;-59
2023/04/30 09:04:21;;;;;;;10.35;2.97;;;12.20;99.90;;;;;;4932018;28;20069;-58
2023/04/30 09:06:47;;;;;;;11.52;3.03;;;12.30;99.90;;;;;;4959033;28;20062;-58
2023/04/30 09:09:15;;;;;;;10.65;3.30;;;12.40;99.90;;;;;;4942374;28;20062;-58
2023/04/30 09:11:41;;;;;;;9.63;3.13;;;12.40;99.90;;;;;;4945137;28;20074;-58
2023/04/30 09:14:07;;;;;;;8.15;2.95;;;12.60;99.90;;;;;;4961025;28;20050;-58
2023/04/30 09:16:56;;;;;;;9.50;2.75;;;12.70;99.90;;;;;;4951806;28;20046;-58
2023/04/30 09:19:24;;;;;;;10.23;3.00;;;12.70;99.90;;;;;;4957482;28;20059;-58
2023/04/30 09:21:50;;;;;;;10.25;2.97;;;12.80;99.90;;;;;;4949711;28;20063;-58
2023/04/30 09:24:16;;;;;;;11.98;3.42;;;12.80;99.90;;;;;;4949234;28;20043;-58
2023/04/30 09:26:42;;;;;;;7.95;2.85;;;12.90;99.90;;;;;;4947152;28;20051;-58
2023/04/30 09:29:09;;;;;;;12.63;3.50;;;13.00;99.90;;;;;;4938680;28;20042;-59
2023/04/30 09:31:35;;;;;;;9.80;3.22;;;13.00;99.90;;;;;;4938236;28;20081;-58
2023/04/30 09:34:02;;;;;;;10.02;2.85;;;13.10;99.90;;;;;;4944572;28;20494;-58
2023/04/30 09:36:28;;;;;;;10.63;2.83;;;13.20;99.90;;;;;;4944309;28;20093;-59
2023/04/30 09:38:55;;;;;;;6.55;2.75;;;13.30;99.90;;;;;;4935602;28;20105;-57
2023/04/30 09:41:22;;;;;;;11.98;3.17;;;13.40;99.90;;;;;;4935622;28;20050;-59
2023/04/30 09:43:48;;;;;;;8.57;2.95;;;13.40;99.90;;;;;;4938274;28;20047;-58
2023/04/30 09:46:14;;;;;;;7.85;2.80;;;13.50;99.90;;;;;;4932544;28;20850;-58
2023/04/30 09:48:44;;;;;;;8.63;3.00;;;13.60;99.90;;;;;;4940267;28;20154;-58
2023/04/30 09:51:10;;;;;;;7.15;2.28;;;13.60;99.50;;;;;;4937272;28;20042;-58
2023/04/30 09:53:41;;;;;;;8.18;2.67;;;13.70;99.60;;;;;;4944662;28;20046;-58
2023/04/30 09:56:07;;;;;;;6.95;2.40;;;13.80;99.60;;;;;;4949833;28;20390;-58
2023/04/30 09:58:37;;;;;;;6.68;2.20;;;14.00;99.40;;;;;;4949975;28;20038;-57
2023/04/30 10:01:10;;;;;;;6.43;2.50;;;14.10;99.10;;;;;;4951730;28;20057;-57
2023/04/30 10:03:38;;;;;;;10.50;2.95;;;14.20;99.20;;;;;;4953089;28;20035;-57
2023/04/30 10:06:05;;;;;;;9.65;3.13;;;14.30;98.80;;;;;;4947058;28;20601;-57
2023/04/30 10:08:35;;;;;;;8.85;2.65;;;14.50;98.50;;;;;;4952173;28;20106;-57
2023/04/30 10:11:06;;;;;;;9.00;2.67;;;14.50;98.30;;;;;;4950702;28;20155;-56
2023/04/30 10:13:42;;;;;;;8.20;3.15;;;14.60;98.20;;;;;;4952940;28;20035;-58
2023/04/30 10:16:33;;;;;;;5.68;2.60;;;14.70;97.90;;;;;;4937384;28;20043;-58
2023/04/30 10:19:05;;;;;;;11.32;3.25;;;14.80;97.60;;;;;;4950627;28;20077;-58
2023/04/30 10:21:32;;;;;;;7.22;2.90;;;14.80;98.00;;;;;;4944523;28;20046;-57
2023/04/30 10:23:59;;;;;;;11.18;2.95;;;15.10;98.20;;;;;;4944935;28;22838;-57
2023/04/30 10:26:25;;;;;;;11.25;2.70;;;15.30;97.60;;;;;;4953278;28;20077;-58
2023/04/30 10:28:52;;;;;;;10.73;3.17;;;15.50;97.00;;;;;;4948290;28;20157;-57
2023/04/30 10:31:19;;;;;;;6.07;2.22;;;15.60;97.20;;;;;;4953946;28;20064;-56
2023/04/30 10:34:30;;;;;;;8.93;2.30;;;15.80;97.10;;;;;;4946890;28;20149;-57
2023/04/30 10:36:59;;;;;;;12.63;2.70;;;16.10;97.00;;;;;;4940693;28;20436;-56
2023/04/30 10:39:29;;;;;;;10.98;2.75;;;16.20;96.10;;;;;;4954274;28;20057;-58
2023/04/30 10:42:05;;;;;;;9.00;3.15;;;16.30;95.30;;;;;;4940023;28;20149;-57
2023/04/30 10:44:33;;;;;;;7.93;2.58;;;16.20;94.00;;;;;;4945781;28;20053;-58
2023/04/30 10:47:05;;;;;;;8.02;2.67;;;16.20;94.20;;;;;;4946710;28;20098;-57
2023/04/30 10:49:34;;;;;;;7.95;2.60;;;16.30;94.10;;;;;;4954227;28;20057;-57
2023/04/30 10:52:02;;;;;;;9.60;2.42;;;16.30;93.00;;;;;;4942939;28;20065;-57
2023/04/30 10:54:34;;;;;;;7.25;2.30;;;16.30;92.80;;;;;;4939579;28;20050;-57
2023/04/30 10:57:16;;;;;;;9.50;2.72;;;16.40;93.00;;;;;;4946672;28;20120;-57
2023/04/30 11:00:06;;;;;;;6.10;2.10;;;16.50;93.30;;;;;;4958704;28;20109;-58
2023/04/30 11:02:43;;;;;;;13.50;2.40;;;16.60;93.40;;;;;;4955396;28;20087;-57
2023/04/30 11:05:13;;;;;;;4.43;2.33;;;16.70;92.60;;;;;;4943840;28;20042;-56
2023/04/30 11:07:56;;;;;;;7.78;2.40;;;16.80;92.30;;;;;;4950992;28;20059;-56
2023/04/30 11:10:24;;;;;;;8.30;2.40;;;17.00;91.60;;;;;;4943321;28;20126;-57
2023/04/30 11:12:51;;;;;;;9.63;2.70;;;17.10;92.10;;;;;;4945405;28;20054;-57
2023/04/30 11:15:20;;;;;;;6.85;2.67;;;17.20;92.00;;;;;;4942300;28;20046;-58
2023/04/30 11:17:49;;;;;;;6.72;2.15;;;17.40;92.10;;;;;;4930560;28;20170;-57
2023/04/30 11:20:20;;;;;;;7.20;2.30;;;17.40;91.00;;;;;;4938746;28;20438;-57
2023/04/30 11:22:46;;;;;;;8.25;2.70;;;17.50;90.40;;;;;;4952017;28;20073;-57
2023/04/30 11:25:17;;;;;;;9.45;3.50;;;17.60;90.80;;;;;;4938094;28;20042;-57
2023/04/30 11:27:44;;;;;;;5.22;2.85;;;17.80;91.00;;;;;;4934063;28;20173;-57
2023/04/30 11:30:15;;;;;;;7.70;2.80;;;17.90;89.60;;;;;;4929210;28;20075;-56
2023/04/30 11:32:46;;;;;;;11.70;3.00;;;17.80;88.80;;;;;;4952484;28;20047;-58
2023/04/30 11:35:12;;;;;;;7.78;2.75;;;17.90;88.80;;;;;;4961683;28;20046;-57
2023/04/30 11:37:42;;;;;;;10.38;2.80;;;18.00;90.70;;;;;;4947306;28;20133;-57
2023/04/30 11:40:09;;;;;;;7.85;2.83;;;18.20;90.60;;;;;;4961796;28;20051;-58
2023/04/30 11:42:40;;;;;;;8.45;2.67;;;18.50;90.60;;;;;;4954101;28;20078;-57
2023/04/30 11:45:07;;;;;;;8.52;2.92;;;18.70;89.30;;;;;;4950575;28;20113;-58
2023/04/30 11:47:45;;;;;;;6.45;2.60;;;18.90;89.70;;;;;;4954463;28;20046;-58
2023/04/30 11:50:13;;;;;;;6.55;3.05;;;19.00;87.40;;;;;;4945620;28;20042;-57
2023/04/30 11:52:40;;;;;;;12.32;3.88;;;19.10;86.70;;;;;;4935569;28;20979;-57
2023/04/30 11:55:17;;;;;;;9.05;3.20;;;19.20;85.80;;;;;;4946644;28;20057;-57
2023/04/30 11:57:45;;;;;;;5.72;2.58;;;19.20;84.10;;;;;;4955455;28;20046;-57
2023/04/30 12:00:30;;;;;;;7.57;3.20;;;19.40;86.60;;;;;;4956356;28;20050;-57
2023/04/30 12:02:58;;;;;;;6.18;3.08;;;19.50;83.30;;;;;;4953438;28;20093;-57
2023/04/30 12:05:26;;;;;;;5.97;2.70;;;19.60;81.30;;;;;;4937626;28;20132;-57
2023/04/30 12:08:08;;;;;;;7.15;2.80;;;19.60;81.30;;;;;;4939350;28;20687;-57
2023/04/30 12:10:34;;;;;;;6.70;2.60;;;19.70;81.20;;;;;;4958722;28;20065;-58
2023/04/30 12:13:01;;;;;;;6.63;2.47;;;19.80;80.50;;;;;;4934929;28;20050;-58
2023/04/30 12:15:27;;;;;;;7.68;2.40;;;19.90;80.30;;;;;;4949987;28;20050;-58
2023/04/30 12:18:12;;;;;;;6.60;2.80;;;20.10;79.70;;;;;;4931888;28;20272;-57
2023/04/30 12:20:39;;;;;;;8.90;2.35;;;20.30;78.80;;;;;;4929447;28;20155;-57
2023/04/30 12:23:06;;;;;;;8.65;2.75;;;20.50;78.70;;;;;;4947323;28;20077;-56
2023/04/30 12:25:41;;;;;;;5.82;2.25;;;20.40;75.70;;;;;;4953422;28;20050;-58
2023/04/30 12:28:07;;;;;;;5.47;1.90;;;20.50;76.50;;;;;;4933967;28;20104;-57
2023/04/30 12:30:33;;;;;;;3.70;1.70;;;20.50;74.40;;;;;;4934939;28;20781;-58
2023/04/30 12:32:59;;;;;;;4.13;1.90;;;20.40;72.50;;;;;;4929212;28;20086;-58
2023/04/30 12:35:27;;;;;;;4.15;1.80;;;20.20;72.60;;;;;;4936804;28;20058;-57
2023/04/30 12:38:03;;;;;;;6.78;1.90;;;20.20;73.00;;;;;;4938634;28;20049;-57
2023/04/30 12:40:28;;;;;;;4.75;1.70;;;20.30;74.30;;;;;;4937684;28;20145;-58
2023/04/30 12:43:05;;;;;;;3.67;1.60;;;20.50;73.20;;;;;;4934269;28;20038;-57
2023/04/30 12:45:51;;;;;;;3.28;1.67;;;20.60;71.30;;;;;;4931689;28;20045;-57
2023/04/30 12:48:19;;;;;;;5.85;1.90;;;20.50;70.60;;;;;;4936932;28;20114;-57
2023/04/30 12:51:00;;;;;;;3.30;1.60;;;20.40;70.30;;;;;;4954520;28;20065;-58
2023/04/30 12:53:27;;;;;;;3.65;1.67;;;20.40;71.50;;;;;;4954305;28;20046;-57
2023/04/30 12:56:15;;;;;;;2.97;1.80;;;20.70;73.00;;;;;;4940526;28;20146;-58